AEA14M LEMD-LEMG
Flight info
| Callsign | AEA14M |
|---|---|
| Flight time | 0h 52m |
| Altitude | 31000 |
| Route | VTB N10 CRISA N864 MOCEQ DCT VULPE |
| Aircraft | B738/M-SDE2E3FGHIRWXY/LB1 |
Departure
| Time | 2026-05-03 21:07 |
|---|---|
| Airport | Adolfo Suárez Madrid–Barajas Airport (LEMD) |
Arrival
| Time | 2026-05-03 22:00 |
|---|---|
| Airport | Málaga-Costa del Sol Airport (LEMG) |
| Time | Latitude | Longitude | Altitude | Speed | Heading |
|---|---|---|---|---|---|
| 2026-05-03 20:16 | 40.46855 | -3.56780 | 1994 ft | 0 kts | 326° |
| 2026-05-03 20:53 | 40.46850 | -3.56777 | 1994 ft | 2 kts | 340° |
| 2026-05-03 20:53 | 40.46840 | -3.56768 | 1993 ft | 2 kts | 304° |
| 2026-05-03 20:53 | 40.46833 | -3.56752 | 1993 ft | 2 kts | 298° |
| 2026-05-03 20:54 | 40.46827 | -3.56734 | 1992 ft | 2 kts | 283° |
| 2026-05-03 20:54 | 40.46825 | -3.56695 | 1989 ft | 2 kts | 273° |
| 2026-05-03 20:54 | 40.46824 | -3.56681 | 1988 ft | 0 kts | 273° |
| 2026-05-03 20:55 | 40.46826 | -3.56666 | 1988 ft | 2 kts | 226° |
| 2026-05-03 20:55 | 40.46834 | -3.56660 | 1987 ft | 0 kts | 185° |
| 2026-05-03 20:55 | 40.46841 | -3.56660 | 1987 ft | 0 kts | 183° |
| 2026-05-03 20:58 | 40.46838 | -3.56660 | 1987 ft | 2 kts | 183° |
| 2026-05-03 20:58 | 40.46808 | -3.56637 | 1986 ft | 9 kts | 117° |
| 2026-05-03 20:59 | 40.46856 | -3.56563 | 1981 ft | 14 kts | 5° |
| 2026-05-03 20:59 | 40.46960 | -3.56556 | 1980 ft | 14 kts | 358° |
| 2026-05-03 20:59 | 40.47062 | -3.56575 | 1979 ft | 15 kts | 342° |
| 2026-05-03 20:59 | 40.47160 | -3.56649 | 1980 ft | 17 kts | 322° |
| 2026-05-03 21:00 | 40.47260 | -3.56753 | 1984 ft | 18 kts | 325° |
| 2026-05-03 21:00 | 40.47328 | -3.56818 | 1987 ft | 17 kts | 322° |
| 2026-05-03 21:00 | 40.47464 | -3.56953 | 1990 ft | 18 kts | 323° |
| 2026-05-03 21:00 | 40.47574 | -3.57066 | 1993 ft | 20 kts | 320° |
| 2026-05-03 21:01 | 40.47676 | -3.57173 | 1998 ft | 19 kts | 322° |
| 2026-05-03 21:01 | 40.47777 | -3.57276 | 2002 ft | 18 kts | 321° |
| 2026-05-03 21:01 | 40.47878 | -3.57379 | 2005 ft | 18 kts | 321° |
| 2026-05-03 21:01 | 40.47983 | -3.57486 | 2007 ft | 20 kts | 321° |
| 2026-05-03 21:02 | 40.48089 | -3.57594 | 2007 ft | 22 kts | 321° |
| 2026-05-03 21:02 | 40.48218 | -3.57730 | 2008 ft | 25 kts | 324° |
| 2026-05-03 21:02 | 40.48359 | -3.57859 | 2008 ft | 22 kts | 325° |
| 2026-05-03 21:02 | 40.48481 | -3.57967 | 2010 ft | 20 kts | 326° |
| 2026-05-03 21:03 | 40.48598 | -3.58050 | 2011 ft | 19 kts | 347° |
| 2026-05-03 21:03 | 40.48734 | -3.58060 | 2008 ft | 18 kts | 359° |
| 2026-05-03 21:03 | 40.48848 | -3.58032 | 2008 ft | 16 kts | 50° |
| 2026-05-03 21:03 | 40.48860 | -3.57886 | 2002 ft | 18 kts | 90° |
| 2026-05-03 21:04 | 40.48861 | -3.57708 | 1998 ft | 18 kts | 88° |
| 2026-05-03 21:04 | 40.48947 | -3.57627 | 1994 ft | 16 kts | 360° |
| 2026-05-03 21:04 | 40.49068 | -3.57628 | 1993 ft | 16 kts | 359° |
| 2026-05-03 21:04 | 40.49154 | -3.57622 | 1993 ft | 5 kts | 15° |
| 2026-05-03 21:05 | 40.49182 | -3.57599 | 1993 ft | 0 kts | 50° |
| 2026-05-03 21:05 | 40.49191 | -3.57579 | 1992 ft | 6 kts | 61° |
| 2026-05-03 21:06 | 40.49226 | -3.57491 | 1989 ft | 15 kts | 56° |
| 2026-05-03 21:06 | 40.49264 | -3.57457 | 1987 ft | 0 kts | 1° |
| 2026-05-03 21:06 | 40.49265 | -3.57457 | 1987 ft | 0 kts | 359° |
| 2026-05-03 21:06 | 40.49266 | -3.57457 | 1987 ft | 1 kts | 359° |
| 2026-05-03 21:07 | 40.49330 | -3.57461 | 1987 ft | 28 kts | 356° |
| 2026-05-03 21:07 | 40.49824 | -3.57472 | 1986 ft | 111 kts | 358° |
| 2026-05-03 21:07 | 40.50802 | -3.57422 | 2170 ft | 158 kts | 2° |
| 2026-05-03 21:07 | 40.51971 | -3.57334 | 2621 ft | 188 kts | 358° |
| 2026-05-03 21:08 | 40.53353 | -3.57436 | 3261 ft | 212 kts | 355° |
| 2026-05-03 21:08 | 40.54832 | -3.57493 | 4211 ft | 219 kts | 357° |
| 2026-05-03 21:08 | 40.56380 | -3.57226 | 4932 ft | 235 kts | 17° |
| 2026-05-03 21:08 | 40.57927 | -3.56513 | 5797 ft | 243 kts | 17° |
| 2026-05-03 21:09 | 40.59543 | -3.55858 | 6720 ft | 248 kts | 15° |
| 2026-05-03 21:09 | 40.61184 | -3.55219 | 7648 ft | 252 kts | 15° |
| 2026-05-03 21:09 | 40.62853 | -3.54574 | 8565 ft | 256 kts | 15° |
| 2026-05-03 21:09 | 40.64607 | -3.54149 | 9467 ft | 259 kts | 2° |
| 2026-05-03 21:10 | 40.66389 | -3.54024 | 10352 ft | 262 kts | 2° |
| 2026-05-03 21:10 | 40.68211 | -3.53850 | 11216 ft | 266 kts | 5° |
| 2026-05-03 21:10 | 40.69967 | -3.53179 | 12018 ft | 271 kts | 28° |
| 2026-05-03 21:10 | 40.71413 | -3.51577 | 12718 ft | 280 kts | 51° |
| 2026-05-03 21:11 | 40.72561 | -3.49389 | 13039 ft | 302 kts | 56° |
| 2026-05-03 21:11 | 40.73748 | -3.47080 | 13016 ft | 303 kts | 55° |
| 2026-05-03 21:11 | 40.74938 | -3.44823 | 13022 ft | 298 kts | 56° |
| 2026-05-03 21:11 | 40.75885 | -3.42401 | 12992 ft | 299 kts | 72° |
| 2026-05-03 21:12 | 40.76147 | -3.39698 | 13082 ft | 294 kts | 95° |
| 2026-05-03 21:12 | 40.75715 | -3.37101 | 13557 ft | 296 kts | 111° |
| 2026-05-03 21:12 | 40.74722 | -3.34728 | 14058 ft | 298 kts | 129° |
| 2026-05-03 21:12 | 40.73434 | -3.32582 | 14560 ft | 300 kts | 130° |
| 2026-05-03 21:13 | 40.72130 | -3.30461 | 15053 ft | 301 kts | 135° |
| 2026-05-03 21:13 | 40.70488 | -3.28772 | 15548 ft | 300 kts | 155° |
| 2026-05-03 21:13 | 40.68498 | -3.27956 | 16056 ft | 300 kts | 174° |
| 2026-05-03 21:13 | 40.66446 | -3.27889 | 16554 ft | 301 kts | 187° |
| 2026-05-03 21:14 | 40.64375 | -3.28252 | 17056 ft | 303 kts | 189° |
| 2026-05-03 21:14 | 40.62293 | -3.28613 | 17555 ft | 305 kts | 188° |
| 2026-05-03 21:14 | 40.60186 | -3.28947 | 18056 ft | 307 kts | 188° |
| 2026-05-03 21:14 | 40.58075 | -3.29299 | 18555 ft | 309 kts | 188° |
| 2026-05-03 21:15 | 40.55949 | -3.29658 | 19055 ft | 311 kts | 188° |
| 2026-05-03 21:15 | 40.53783 | -3.30022 | 19560 ft | 313 kts | 188° |
| 2026-05-03 21:15 | 40.51634 | -3.30383 | 19976 ft | 318 kts | 188° |
| 2026-05-03 21:15 | 40.49818 | -3.30689 | 20005 ft | 321 kts | 188° |
| 2026-05-03 21:16 | 40.47671 | -3.31049 | 19990 ft | 316 kts | 188° |
| 2026-05-03 21:16 | 40.45496 | -3.31415 | 20004 ft | 314 kts | 188° |
| 2026-05-03 21:16 | 40.43375 | -3.31771 | 20376 ft | 310 kts | 188° |
| 2026-05-03 21:16 | 40.41501 | -3.32087 | 20820 ft | 317 kts | 188° |
| 2026-05-03 21:17 | 40.39443 | -3.32433 | 21288 ft | 322 kts | 188° |
| 2026-05-03 21:17 | 40.37965 | -3.32681 | 21620 ft | 323 kts | 188° |
| 2026-05-03 21:17 | 40.34982 | -3.33181 | 22288 ft | 326 kts | 188° |
| 2026-05-03 21:17 | 40.32733 | -3.33558 | 22789 ft | 328 kts | 188° |
| 2026-05-03 21:18 | 40.30477 | -3.33936 | 23288 ft | 330 kts | 188° |
| 2026-05-03 21:18 | 40.28221 | -3.34313 | 23783 ft | 333 kts | 188° |
| 2026-05-03 21:18 | 40.25923 | -3.34698 | 24284 ft | 335 kts | 188° |
| 2026-05-03 21:18 | 40.23613 | -3.35161 | 24786 ft | 337 kts | 192° |
| 2026-05-03 21:19 | 40.21328 | -3.35756 | 25284 ft | 340 kts | 193° |
| 2026-05-03 21:19 | 40.18984 | -3.36358 | 25788 ft | 344 kts | 192° |
| 2026-05-03 21:19 | 40.16653 | -3.36931 | 26284 ft | 347 kts | 192° |
| 2026-05-03 21:19 | 40.14288 | -3.37515 | 26783 ft | 349 kts | 192° |
| 2026-05-03 21:20 | 40.11910 | -3.38104 | 27281 ft | 350 kts | 192° |
| 2026-05-03 21:20 | 40.09522 | -3.38693 | 27780 ft | 350 kts | 192° |
| 2026-05-03 21:20 | 40.07147 | -3.39279 | 28277 ft | 350 kts | 192° |
| 2026-05-03 21:20 | 40.04745 | -3.39870 | 28781 ft | 348 kts | 192° |
| 2026-05-03 21:21 | 40.02404 | -3.40446 | 29275 ft | 347 kts | 192° |
| 2026-05-03 21:21 | 40.00052 | -3.41024 | 29774 ft | 344 kts | 192° |
| 2026-05-03 21:21 | 39.97696 | -3.41602 | 30278 ft | 342 kts | 192° |
| 2026-05-03 21:21 | 39.95385 | -3.42169 | 30776 ft | 339 kts | 192° |
| 2026-05-03 21:22 | 39.93077 | -3.42735 | 31008 ft | 344 kts | 192° |
| 2026-05-03 21:22 | 39.90722 | -3.43312 | 30991 ft | 342 kts | 192° |
| 2026-05-03 21:22 | 39.86126 | -3.44436 | 30993 ft | 335 kts | 192° |
| 2026-05-03 21:23 | 39.81558 | -3.45587 | 30993 ft | 337 kts | 195° |
| 2026-05-03 21:23 | 39.77290 | -3.48007 | 30993 ft | 336 kts | 215° |
| 2026-05-03 21:24 | 39.73847 | -3.52067 | 30993 ft | 337 kts | 226° |
| 2026-05-03 21:24 | 39.70562 | -3.56364 | 30993 ft | 336 kts | 225° |
| 2026-05-03 21:25 | 39.67258 | -3.60674 | 30993 ft | 336 kts | 225° |
| 2026-05-03 21:25 | 39.63992 | -3.64952 | 30984 ft | 337 kts | 225° |
| 2026-05-03 21:26 | 39.60694 | -3.69269 | 30992 ft | 336 kts | 224° |
| 2026-05-03 21:26 | 39.57395 | -3.73588 | 30993 ft | 337 kts | 224° |
| 2026-05-03 21:27 | 39.54080 | -3.77922 | 30994 ft | 349 kts | 224° |
| 2026-05-03 21:27 | 39.50581 | -3.82493 | 30993 ft | 369 kts | 225° |
| 2026-05-03 21:28 | 39.46880 | -3.87320 | 30993 ft | 389 kts | 225° |
| 2026-05-03 21:28 | 39.42960 | -3.92424 | 30993 ft | 408 kts | 225° |
| 2026-05-03 21:29 | 39.38897 | -3.97706 | 30993 ft | 427 kts | 225° |
| 2026-05-03 21:29 | 39.34609 | -4.03270 | 30992 ft | 444 kts | 225° |
| 2026-05-03 21:30 | 39.30254 | -4.08911 | 30993 ft | 446 kts | 225° |
| 2026-05-03 21:30 | 39.25895 | -4.14546 | 30993 ft | 444 kts | 225° |
| 2026-05-03 21:31 | 39.21546 | -4.20159 | 30993 ft | 444 kts | 225° |
| 2026-05-03 21:31 | 39.17171 | -4.25794 | 30995 ft | 444 kts | 225° |
| 2026-05-03 21:32 | 39.12809 | -4.31401 | 31003 ft | 444 kts | 225° |
| 2026-05-03 21:32 | 39.08434 | -4.37015 | 31011 ft | 444 kts | 225° |
| 2026-05-03 21:33 | 39.04069 | -4.42606 | 31019 ft | 444 kts | 225° |
| 2026-05-03 21:33 | 38.99701 | -4.48191 | 31020 ft | 443 kts | 224° |
| 2026-05-03 21:34 | 38.95150 | -4.53421 | 31019 ft | 441 kts | 212° |
| 2026-05-03 21:34 | 38.92471 | -4.55300 | 31020 ft | 439 kts | 200° |
| 2026-05-03 21:34 | 38.89572 | -4.56439 | 31021 ft | 439 kts | 189° |
| 2026-05-03 21:35 | 38.83544 | -4.57675 | 31019 ft | 442 kts | 186° |
| 2026-05-03 21:35 | 38.77512 | -4.58991 | 31020 ft | 441 kts | 187° |
| 2026-05-03 21:36 | 38.71500 | -4.60265 | 31020 ft | 440 kts | 187° |
| 2026-05-03 21:36 | 38.65477 | -4.61527 | 31020 ft | 440 kts | 186° |
| 2026-05-03 21:37 | 38.59427 | -4.62744 | 31019 ft | 440 kts | 184° |
| 2026-05-03 21:37 | 38.53374 | -4.63313 | 31020 ft | 438 kts | 181° |
| 2026-05-03 21:38 | 38.47321 | -4.63902 | 31020 ft | 439 kts | 182° |
| 2026-05-03 21:38 | 38.41269 | -4.64526 | 31020 ft | 439 kts | 182° |
| 2026-05-03 21:39 | 38.35186 | -4.65158 | 31020 ft | 439 kts | 181° |
| 2026-05-03 21:39 | 38.29137 | -4.65793 | 31020 ft | 438 kts | 181° |
| 2026-05-03 21:40 | 38.23088 | -4.66430 | 31020 ft | 438 kts | 181° |
| 2026-05-03 21:40 | 38.16992 | -4.67073 | 31020 ft | 438 kts | 182° |
| 2026-05-03 21:41 | 38.10938 | -4.67711 | 31020 ft | 439 kts | 182° |
| 2026-05-03 21:41 | 38.04906 | -4.68347 | 31020 ft | 438 kts | 182° |
| 2026-05-03 21:42 | 37.98866 | -4.68983 | 30914 ft | 437 kts | 182° |
| 2026-05-03 21:42 | 37.95849 | -4.69300 | 30097 ft | 439 kts | 182° |
| 2026-05-03 21:42 | 37.92783 | -4.69621 | 29152 ft | 443 kts | 182° |
| 2026-05-03 21:43 | 37.89723 | -4.69942 | 28153 ft | 447 kts | 182° |
| 2026-05-03 21:43 | 37.86607 | -4.70268 | 27086 ft | 453 kts | 182° |
| 2026-05-03 21:43 | 37.83683 | -4.70575 | 26039 ft | 458 kts | 183° |
| 2026-05-03 21:43 | 37.80537 | -4.70904 | 25000 ft | 460 kts | 183° |
| 2026-05-03 21:44 | 37.77381 | -4.71236 | 24242 ft | 456 kts | 183° |
| 2026-05-03 21:44 | 37.74241 | -4.71565 | 23433 ft | 454 kts | 183° |
| 2026-05-03 21:44 | 37.71118 | -4.71892 | 22625 ft | 451 kts | 184° |
| 2026-05-03 21:44 | 37.68039 | -4.72214 | 21790 ft | 437 kts | 184° |
| 2026-05-03 21:45 | 37.65110 | -4.72520 | 21031 ft | 416 kts | 184° |
| 2026-05-03 21:45 | 37.62293 | -4.72815 | 20279 ft | 397 kts | 184° |
| 2026-05-03 21:45 | 37.59610 | -4.73094 | 19565 ft | 392 kts | 184° |
| 2026-05-03 21:45 | 37.56881 | -4.73377 | 18833 ft | 402 kts | 184° |
| 2026-05-03 21:46 | 37.54121 | -4.73663 | 18072 ft | 392 kts | 184° |
| 2026-05-03 21:46 | 37.51456 | -4.73940 | 17352 ft | 384 kts | 184° |
| 2026-05-03 21:46 | 37.48783 | -4.74218 | 16625 ft | 390 kts | 184° |
| 2026-05-03 21:46 | 37.46127 | -4.74493 | 15887 ft | 378 kts | 185° |
| 2026-05-03 21:47 | 37.43564 | -4.74759 | 15214 ft | 377 kts | 185° |
| 2026-05-03 21:47 | 37.40935 | -4.75031 | 14499 ft | 378 kts | 185° |
| 2026-05-03 21:47 | 37.38385 | -4.75295 | 13808 ft | 366 kts | 185° |
| 2026-05-03 21:47 | 37.35816 | -4.75561 | 13130 ft | 372 kts | 185° |
| 2026-05-03 21:48 | 37.33296 | -4.75822 | 12427 ft | 365 kts | 185° |
| 2026-05-03 21:48 | 37.30810 | -4.76079 | 11762 ft | 360 kts | 185° |
| 2026-05-03 21:48 | 37.28341 | -4.76333 | 11277 ft | 350 kts | 185° |
| 2026-05-03 21:48 | 37.25989 | -4.76576 | 10979 ft | 328 kts | 185° |
| 2026-05-03 21:49 | 37.23788 | -4.76802 | 10839 ft | 313 kts | 185° |
| 2026-05-03 21:49 | 37.21610 | -4.77028 | 10667 ft | 313 kts | 185° |
| 2026-05-03 21:49 | 37.19492 | -4.77245 | 10504 ft | 291 kts | 185° |
| 2026-05-03 21:49 | 37.17545 | -4.77445 | 10358 ft | 281 kts | 185° |
| 2026-05-03 21:50 | 37.15603 | -4.77646 | 10189 ft | 277 kts | 185° |
| 2026-05-03 21:50 | 37.13718 | -4.77840 | 9893 ft | 265 kts | 185° |
| 2026-05-03 21:50 | 37.11907 | -4.78026 | 9543 ft | 260 kts | 185° |
| 2026-05-03 21:50 | 37.10090 | -4.78214 | 9200 ft | 266 kts | 186° |
| 2026-05-03 21:51 | 37.08276 | -4.78399 | 8856 ft | 257 kts | 186° |
| 2026-05-03 21:51 | 37.06475 | -4.78585 | 8524 ft | 263 kts | 186° |
| 2026-05-03 21:51 | 37.04684 | -4.78768 | 8181 ft | 257 kts | 187° |
| 2026-05-03 21:51 | 37.02921 | -4.78949 | 7858 ft | 258 kts | 187° |
| 2026-05-03 21:52 | 37.01345 | -4.79112 | 7556 ft | 259 kts | 187° |
| 2026-05-03 21:52 | 37.00418 | -4.79206 | 7380 ft | 254 kts | 187° |
| 2026-05-03 21:52 | 36.98736 | -4.79378 | 7071 ft | 258 kts | 187° |
| 2026-05-03 21:52 | 36.96946 | -4.79562 | 6728 ft | 256 kts | 187° |
| 2026-05-03 21:53 | 36.95196 | -4.79740 | 6410 ft | 256 kts | 188° |
| 2026-05-03 21:53 | 36.93411 | -4.79855 | 6079 ft | 262 kts | 179° |
| 2026-05-03 21:53 | 36.91619 | -4.79298 | 5730 ft | 265 kts | 162° |
| 2026-05-03 21:53 | 36.89916 | -4.78515 | 5389 ft | 264 kts | 163° |
| 2026-05-03 21:54 | 36.88190 | -4.77763 | 5079 ft | 260 kts | 163° |
| 2026-05-03 21:54 | 36.86534 | -4.76966 | 4950 ft | 254 kts | 156° |
| 2026-05-03 21:54 | 36.84981 | -4.75913 | 4771 ft | 246 kts | 153° |
| 2026-05-03 21:54 | 36.83516 | -4.74916 | 4606 ft | 237 kts | 154° |
| 2026-05-03 21:55 | 36.82098 | -4.73959 | 4428 ft | 229 kts | 154° |
| 2026-05-03 21:55 | 36.80729 | -4.73035 | 4169 ft | 220 kts | 154° |
| 2026-05-03 21:55 | 36.79418 | -4.72151 | 3920 ft | 209 kts | 154° |
| 2026-05-03 21:55 | 36.78184 | -4.71287 | 3739 ft | 198 kts | 147° |
| 2026-05-03 21:56 | 36.77271 | -4.69979 | 3514 ft | 206 kts | 121° |
| 2026-05-03 21:56 | 36.76561 | -4.68444 | 3217 ft | 204 kts | 121° |
| 2026-05-03 21:56 | 36.75872 | -4.66916 | 2936 ft | 202 kts | 118° |
| 2026-05-03 21:56 | 36.75217 | -4.65361 | 2655 ft | 201 kts | 118° |
| 2026-05-03 21:57 | 36.74575 | -4.63831 | 2379 ft | 200 kts | 118° |
| 2026-05-03 21:57 | 36.73940 | -4.62312 | 2107 ft | 198 kts | 118° |
| 2026-05-03 21:57 | 36.73318 | -4.60827 | 1841 ft | 181 kts | 118° |
| 2026-05-03 21:57 | 36.72775 | -4.59531 | 1596 ft | 164 kts | 118° |
| 2026-05-03 21:58 | 36.72244 | -4.58263 | 1388 ft | 165 kts | 117° |
| 2026-05-03 21:58 | 36.71727 | -4.57028 | 1185 ft | 155 kts | 117° |
| 2026-05-03 21:58 | 36.71240 | -4.55868 | 961 ft | 149 kts | 117° |
| 2026-05-03 21:58 | 36.70760 | -4.54722 | 760 ft | 149 kts | 117° |
| 2026-05-03 21:59 | 36.70280 | -4.53580 | 564 ft | 148 kts | 117° |
| 2026-05-03 21:59 | 36.69806 | -4.52439 | 401 ft | 147 kts | 116° |
| 2026-05-03 21:59 | 36.69342 | -4.51320 | 217 ft | 148 kts | 118° |
| 2026-05-03 21:59 | 36.68861 | -4.50186 | 37 ft | 142 kts | 117° |
| 2026-05-03 22:00 | 36.68496 | -4.49311 | 29 ft | 77 kts | 116° |
| 2026-05-03 22:00 | 36.68338 | -4.49006 | 29 ft | 18 kts | 133° |
| 2026-05-03 22:00 | 36.68248 | -4.48910 | 27 ft | 17 kts | 143° |
| 2026-05-03 22:00 | 36.68142 | -4.48842 | 26 ft | 17 kts | 167° |
| 2026-05-03 22:01 | 36.68035 | -4.48878 | 29 ft | 15 kts | 207° |
| 2026-05-03 22:01 | 36.67931 | -4.48928 | 32 ft | 16 kts | 207° |
| 2026-05-03 22:01 | 36.67891 | -4.48954 | 33 ft | 0 kts | 207° |
| 2026-05-03 22:02 | 36.67887 | -4.48957 | 34 ft | 0 kts | 207° |